sensor_id;sensor_type;location;lat;lon;timestamp;P1;durP1;ratioP1;P2;durP2;ratioP2
19907;SDS011;10116;53.112;7.356;2023-10-19T00:01:17;3.67;;;3.33;;
19907;SDS011;10116;53.112;7.356;2023-10-19T00:03:43;3.87;;;3.63;;
19907;SDS011;10116;53.112;7.356;2023-10-19T00:06:09;3.33;;;3.13;;
19907;SDS011;10116;53.112;7.356;2023-10-19T00:08:37;3.67;;;3.37;;
19907;SDS011;10116;53.112;7.356;2023-10-19T00:11:06;4.60;;;3.63;;
19907;SDS011;10116;53.112;7.356;2023-10-19T00:13:46;4.50;;;3.40;;
19907;SDS011;10116;53.112;7.356;2023-10-19T00:16:15;3.47;;;3.20;;
19907;SDS011;10116;53.112;7.356;2023-10-19T00:18:42;3.30;;;3.10;;
19907;SDS011;10116;53.112;7.356;2023-10-19T00:21:09;3.70;;;3.40;;
19907;SDS011;10116;53.112;7.356;2023-10-19T00:23:43;3.73;;;3.47;;
19907;SDS011;10116;53.112;7.356;2023-10-19T00:26:12;4.03;;;3.43;;
19907;SDS011;10116;53.112;7.356;2023-10-19T00:28:50;3.50;;;3.10;;
19907;SDS011;10116;53.112;7.356;2023-10-19T00:31:19;3.93;;;3.53;;
19907;SDS011;10116;53.112;7.356;2023-10-19T00:33:45;3.97;;;3.67;;
19907;SDS011;10116;53.112;7.356;2023-10-19T00:36:11;4.97;;;4.17;;
19907;SDS011;10116;53.112;7.356;2023-10-19T00:38:40;4.13;;;3.73;;
19907;SDS011;10116;53.112;7.356;2023-10-19T00:41:17;3.97;;;3.67;;
19907;SDS011;10116;53.112;7.356;2023-10-19T00:43:56;5.03;;;4.17;;
19907;SDS011;10116;53.112;7.356;2023-10-19T00:46:27;4.63;;;4.23;;
19907;SDS011;10116;53.112;7.356;2023-10-19T00:49:11;3.83;;;3.63;;
19907;SDS011;10116;53.112;7.356;2023-10-19T00:51:40;6.10;;;4.03;;
19907;SDS011;10116;53.112;7.356;2023-10-19T00:54:28;7.70;;;4.50;;
19907;SDS011;10116;53.112;7.356;2023-10-19T00:57:07;4.30;;;4.00;;
19907;SDS011;10116;53.112;7.356;2023-10-19T00:59:39;4.00;;;3.70;;
19907;SDS011;10116;53.112;7.356;2023-10-19T01:02:20;3.77;;;3.47;;
19907;SDS011;10116;53.112;7.356;2023-10-19T01:04:55;4.30;;;3.97;;
19907;SDS011;10116;53.112;7.356;2023-10-19T01:07:26;3.73;;;3.43;;
19907;SDS011;10116;53.112;7.356;2023-10-19T01:09:54;4.10;;;3.73;;
19907;SDS011;10116;53.112;7.356;2023-10-19T01:12:22;4.30;;;3.90;;
19907;SDS011;10116;53.112;7.356;2023-10-19T01:17:30;4.40;;;3.70;;
19907;SDS011;10116;53.112;7.356;2023-10-19T01:19:59;4.30;;;4.00;;
19907;SDS011;10116;53.112;7.356;2023-10-19T01:22:25;4.10;;;3.80;;
19907;SDS011;10116;53.112;7.356;2023-10-19T01:24:52;4.37;;;4.07;;
19907;SDS011;10116;53.112;7.356;2023-10-19T01:27:20;3.90;;;3.70;;
19907;SDS011;10116;53.112;7.356;2023-10-19T01:29:46;4.13;;;3.63;;
19907;SDS011;10116;53.112;7.356;2023-10-19T01:32:11;4.07;;;3.70;;
19907;SDS011;10116;53.112;7.356;2023-10-19T01:34:40;4.33;;;3.97;;
19907;SDS011;10116;53.112;7.356;2023-10-19T01:37:06;4.40;;;4.00;;
19907;SDS011;10116;53.112;7.356;2023-10-19T01:39:32;4.07;;;3.77;;
19907;SDS011;10116;53.112;7.356;2023-10-19T01:42:00;4.63;;;4.23;;
19907;SDS011;10116;53.112;7.356;2023-10-19T01:44:30;4.03;;;3.83;;
19907;SDS011;10116;53.112;7.356;2023-10-19T01:46:56;4.00;;;3.70;;
19907;SDS011;10116;53.112;7.356;2023-10-19T01:49:22;4.13;;;3.83;;
19907;SDS011;10116;53.112;7.356;2023-10-19T01:51:51;4.13;;;3.83;;
19907;SDS011;10116;53.112;7.356;2023-10-19T01:54:18;4.10;;;3.70;;
19907;SDS011;10116;53.112;7.356;2023-10-19T01:56:49;4.63;;;4.23;;
19907;SDS011;10116;53.112;7.356;2023-10-19T01:59:25;4.33;;;3.77;;
19907;SDS011;10116;53.112;7.356;2023-10-19T02:01:56;3.93;;;3.60;;
19907;SDS011;10116;53.112;7.356;2023-10-19T02:04:22;3.90;;;3.60;;
19907;SDS011;10116;53.112;7.356;2023-10-19T02:06:49;3.40;;;3.20;;
19907;SDS011;10116;53.112;7.356;2023-10-19T02:09:17;3.73;;;3.53;;
19907;SDS011;10116;53.112;7.356;2023-10-19T02:11:47;4.10;;;3.80;;
19907;SDS011;10116;53.112;7.356;2023-10-19T02:14:14;3.40;;;3.20;;
19907;SDS011;10116;53.112;7.356;2023-10-19T02:16:44;3.30;;;3.10;;
19907;SDS011;10116;53.112;7.356;2023-10-19T02:19:16;4.47;;;4.17;;
19907;SDS011;10116;53.112;7.356;2023-10-19T02:21:42;4.23;;;3.80;;
19907;SDS011;10116;53.112;7.356;2023-10-19T02:24:12;3.53;;;3.33;;
19907;SDS011;10116;53.112;7.356;2023-10-19T02:26:39;4.30;;;3.90;;
19907;SDS011;10116;53.112;7.356;2023-10-19T02:29:06;3.27;;;3.07;;
19907;SDS011;10116;53.112;7.356;2023-10-19T02:31:35;3.60;;;3.40;;
19907;SDS011;10116;53.112;7.356;2023-10-19T02:34:03;4.20;;;3.80;;
19907;SDS011;10116;53.112;7.356;2023-10-19T02:36:30;3.43;;;3.23;;
19907;SDS011;10116;53.112;7.356;2023-10-19T02:38:56;3.57;;;3.37;;
19907;SDS011;10116;53.112;7.356;2023-10-19T02:41:42;3.33;;;3.13;;
19907;SDS011;10116;53.112;7.356;2023-10-19T02:44:14;3.57;;;3.37;;
19907;SDS011;10116;53.112;7.356;2023-10-19T02:46:47;3.13;;;2.93;;
19907;SDS011;10116;53.112;7.356;2023-10-19T02:49:15;3.90;;;3.70;;
19907;SDS011;10116;53.112;7.356;2023-10-19T02:51:49;3.20;;;3.00;;
19907;SDS011;10116;53.112;7.356;2023-10-19T02:54:16;4.17;;;3.80;;
19907;SDS011;10116;53.112;7.356;2023-10-19T02:56:48;3.43;;;3.20;;
19907;SDS011;10116;53.112;7.356;2023-10-19T02:59:19;3.50;;;3.20;;
19907;SDS011;10116;53.112;7.356;2023-10-19T03:04:17;3.47;;;3.23;;
19907;SDS011;10116;53.112;7.356;2023-10-19T03:06:43;3.73;;;3.10;;
19907;SDS011;10116;53.112;7.356;2023-10-19T03:09:09;3.93;;;3.30;;
19907;SDS011;10116;53.112;7.356;2023-10-19T03:11:47;3.93;;;3.63;;
19907;SDS011;10116;53.112;7.356;2023-10-19T03:14:17;3.47;;;3.17;;
19907;SDS011;10116;53.112;7.356;2023-10-19T03:16:44;3.60;;;3.23;;
19907;SDS011;10116;53.112;7.356;2023-10-19T03:19:11;3.70;;;2.93;;
19907;SDS011;10116;53.112;7.356;2023-10-19T03:21:39;3.17;;;3.07;;
19907;SDS011;10116;53.112;7.356;2023-10-19T03:24:09;3.33;;;3.03;;
19907;SDS011;10116;53.112;7.356;2023-10-19T03:26:48;2.97;;;2.83;;
19907;SDS011;10116;53.112;7.356;2023-10-19T03:29:15;3.43;;;3.23;;
19907;SDS011;10116;53.112;7.356;2023-10-19T03:31:52;3.10;;;2.90;;
19907;SDS011;10116;53.112;7.356;2023-10-19T03:34:18;3.70;;;3.07;;
19907;SDS011;10116;53.112;7.356;2023-10-19T03:36:43;3.17;;;2.93;;
19907;SDS011;10116;53.112;7.356;2023-10-19T03:39:09;3.40;;;3.10;;
19907;SDS011;10116;53.112;7.356;2023-10-19T03:41:40;2.70;;;2.60;;
19907;SDS011;10116;53.112;7.356;2023-10-19T03:44:12;2.90;;;2.70;;
19907;SDS011;10116;53.112;7.356;2023-10-19T03:46:49;2.40;;;2.30;;
19907;SDS011;10116;53.112;7.356;2023-10-19T03:49:21;3.03;;;2.53;;
19907;SDS011;10116;53.112;7.356;2023-10-19T03:51:48;2.37;;;2.27;;
19907;SDS011;10116;53.112;7.356;2023-10-19T03:54:27;2.40;;;2.30;;
19907;SDS011;10116;53.112;7.356;2023-10-19T03:56:53;2.20;;;2.10;;
19907;SDS011;10116;53.112;7.356;2023-10-19T03:59:26;2.60;;;2.40;;
19907;SDS011;10116;53.112;7.356;2023-10-19T04:01:56;1.90;;;1.90;;
19907;SDS011;10116;53.112;7.356;2023-10-19T04:04:24;2.10;;;2.00;;
19907;SDS011;10116;53.112;7.356;2023-10-19T04:06:50;2.10;;;2.00;;
19907;SDS011;10116;53.112;7.356;2023-10-19T04:09:22;1.80;;;1.70;;
19907;SDS011;10116;53.112;7.356;2023-10-19T04:11:53;2.50;;;2.07;;
19907;SDS011;10116;53.112;7.356;2023-10-19T04:14:22;2.20;;;2.10;;
19907;SDS011;10116;53.112;7.356;2023-10-19T04:16:48;2.20;;;2.10;;
19907;SDS011;10116;53.112;7.356;2023-10-19T04:19:14;1.93;;;1.83;;
19907;SDS011;10116;53.112;7.356;2023-10-19T04:21:41;2.50;;;1.83;;
19907;SDS011;10116;53.112;7.356;2023-10-19T04:24:12;2.50;;;1.67;;
19907;SDS011;10116;53.112;7.356;2023-10-19T04:26:39;2.17;;;2.07;;
19907;SDS011;10116;53.112;7.356;2023-10-19T04:29:05;1.70;;;1.60;;
19907;SDS011;10116;53.112;7.356;2023-10-19T04:31:42;3.37;;;1.80;;
19907;SDS011;10116;53.112;7.356;2023-10-19T04:34:20;1.20;;;1.20;;
19907;SDS011;10116;53.112;7.356;2023-10-19T04:36:49;1.67;;;1.60;;
19907;SDS011;10116;53.112;7.356;2023-10-19T04:39:16;1.50;;;1.50;;
19907;SDS011;10116;53.112;7.356;2023-10-19T04:41:44;1.50;;;1.40;;
19907;SDS011;10116;53.112;7.356;2023-10-19T04:44:13;1.40;;;1.40;;
19907;SDS011;10116;53.112;7.356;2023-10-19T04:46:40;1.43;;;1.40;;
19907;SDS011;10116;53.112;7.356;2023-10-19T04:49:07;1.50;;;1.50;;
19907;SDS011;10116;53.112;7.356;2023-10-19T04:51:33;1.23;;;1.23;;
19907;SDS011;10116;53.112;7.356;2023-10-19T04:54:03;1.43;;;1.33;;
19907;SDS011;10116;53.112;7.356;2023-10-19T04:56:30;1.43;;;1.43;;
19907;SDS011;10116;53.112;7.356;2023-10-19T04:58:57;1.60;;;1.50;;
19907;SDS011;10116;53.112;7.356;2023-10-19T05:01:22;1.33;;;1.23;;
19907;SDS011;10116;53.112;7.356;2023-10-19T05:03:48;1.37;;;1.37;;
19907;SDS011;10116;53.112;7.356;2023-10-19T05:06:14;1.20;;;1.20;;
19907;SDS011;10116;53.112;7.356;2023-10-19T05:08:39;1.33;;;1.30;;
19907;SDS011;10116;53.112;7.356;2023-10-19T05:11:05;1.50;;;1.40;;
19907;SDS011;10116;53.112;7.356;2023-10-19T05:13:31;1.13;;;1.13;;
19907;SDS011;10116;53.112;7.356;2023-10-19T05:15:57;1.27;;;1.27;;
19907;SDS011;10116;53.112;7.356;2023-10-19T05:18:27;1.10;;;1.10;;
19907;SDS011;10116;53.112;7.356;2023-10-19T05:20:52;1.10;;;1.10;;
19907;SDS011;10116;53.112;7.356;2023-10-19T05:23:24;1.00;;;1.00;;
19907;SDS011;10116;53.112;7.356;2023-10-19T05:25:58;1.10;;;1.10;;
19907;SDS011;10116;53.112;7.356;2023-10-19T05:28:26;1.10;;;1.10;;
19907;SDS011;10116;53.112;7.356;2023-10-19T05:30:51;1.27;;;1.27;;
19907;SDS011;10116;53.112;7.356;2023-10-19T05:33:17;1.00;;;1.00;;
19907;SDS011;10116;53.112;7.356;2023-10-19T05:35:49;0.93;;;0.93;;
19907;SDS011;10116;53.112;7.356;2023-10-19T05:38:18;1.00;;;1.00;;
19907;SDS011;10116;53.112;7.356;2023-10-19T05:40:45;1.00;;;1.00;;
19907;SDS011;10116;53.112;7.356;2023-10-19T05:43:11;1.20;;;1.20;;
19907;SDS011;10116;53.112;7.356;2023-10-19T05:45:37;0.80;;;0.80;;
19907;SDS011;10116;53.112;7.356;2023-10-19T05:48:04;1.00;;;1.00;;
19907;SDS011;10116;53.112;7.356;2023-10-19T05:50:31;1.00;;;1.00;;
19907;SDS011;10116;53.112;7.356;2023-10-19T05:52:58;1.10;;;1.10;;
19907;SDS011;10116;53.112;7.356;2023-10-19T05:55:25;1.23;;;1.20;;
19907;SDS011;10116;53.112;7.356;2023-10-19T05:57:50;1.20;;;1.20;;
19907;SDS011;10116;53.112;7.356;2023-10-19T06:00:16;1.00;;;1.00;;
19907;SDS011;10116;53.112;7.356;2023-10-19T06:02:46;1.40;;;1.33;;
19907;SDS011;10116;53.112;7.356;2023-10-19T06:05:15;0.90;;;0.90;;
19907;SDS011;10116;53.112;7.356;2023-10-19T06:07:41;0.90;;;0.90;;
19907;SDS011;10116;53.112;7.356;2023-10-19T06:10:10;1.10;;;1.10;;
19907;SDS011;10116;53.112;7.356;2023-10-19T06:12:40;0.90;;;0.90;;
19907;SDS011;10116;53.112;7.356;2023-10-19T06:15:08;1.27;;;1.17;;
19907;SDS011;10116;53.112;7.356;2023-10-19T06:17:36;1.47;;;1.37;;
19907;SDS011;10116;53.112;7.356;2023-10-19T06:20:06;1.43;;;1.30;;
19907;SDS011;10116;53.112;7.356;2023-10-19T06:22:47;1.63;;;0.90;;
19907;SDS011;10116;53.112;7.356;2023-10-19T06:25:19;1.23;;;1.23;;
19907;SDS011;10116;53.112;7.356;2023-10-19T06:27:49;1.53;;;1.00;;
19907;SDS011;10116;53.112;7.356;2023-10-19T06:30:15;0.90;;;0.90;;
19907;SDS011;10116;53.112;7.356;2023-10-19T06:32:53;0.90;;;0.90;;
19907;SDS011;10116;53.112;7.356;2023-10-19T06:35:20;1.63;;;0.97;;
19907;SDS011;10116;53.112;7.356;2023-10-19T06:37:47;1.50;;;1.23;;
19907;SDS011;10116;53.112;7.356;2023-10-19T06:40:14;3.60;;;1.47;;
19907;SDS011;10116;53.112;7.356;2023-10-19T06:42:44;4.30;;;1.57;;
19907;SDS011;10116;53.112;7.356;2023-10-19T06:45:10;2.20;;;1.20;;
19907;SDS011;10116;53.112;7.356;2023-10-19T06:47:42;2.93;;;1.10;;
19907;SDS011;10116;53.112;7.356;2023-10-19T06:50:10;1.87;;;1.17;;
19907;SDS011;10116;53.112;7.356;2023-10-19T06:52:39;2.43;;;1.23;;
19907;SDS011;10116;53.112;7.356;2023-10-19T06:55:05;2.23;;;0.90;;
19907;SDS011;10116;53.112;7.356;2023-10-19T06:57:53;0.97;;;0.97;;
19907;SDS011;10116;53.112;7.356;2023-10-19T07:00:21;1.37;;;1.10;;
19907;SDS011;10116;53.112;7.356;2023-10-19T07:02:48;0.80;;;0.80;;
19907;SDS011;10116;53.112;7.356;2023-10-19T07:05:18;0.80;;;0.80;;
19907;SDS011;10116;53.112;7.356;2023-10-19T07:07:51;1.00;;;1.00;;
19907;SDS011;10116;53.112;7.356;2023-10-19T07:10:19;1.40;;;1.13;;
19907;SDS011;10116;53.112;7.356;2023-10-19T07:12:46;1.00;;;0.90;;
19907;SDS011;10116;53.112;7.356;2023-10-19T07:15:13;1.03;;;1.03;;
19907;SDS011;10116;53.112;7.356;2023-10-19T07:17:42;2.93;;;0.93;;
19907;SDS011;10116;53.112;7.356;2023-10-19T07:20:09;1.07;;;0.97;;
19907;SDS011;10116;53.112;7.356;2023-10-19T07:23:00;1.07;;;1.07;;
19907;SDS011;10116;53.112;7.356;2023-10-19T07:25:46;1.17;;;1.07;;
19907;SDS011;10116;53.112;7.356;2023-10-19T07:28:17;2.20;;;0.80;;
19907;SDS011;10116;53.112;7.356;2023-10-19T07:30:44;0.80;;;0.80;;
19907;SDS011;10116;53.112;7.356;2023-10-19T07:33:11;2.30;;;0.93;;
19907;SDS011;10116;53.112;7.356;2023-10-19T07:35:45;1.53;;;0.90;;
19907;SDS011;10116;53.112;7.356;2023-10-19T07:38:15;1.90;;;0.80;;
19907;SDS011;10116;53.112;7.356;2023-10-19T07:40:42;1.10;;;0.90;;
19907;SDS011;10116;53.112;7.356;2023-10-19T07:43:11;2.60;;;1.00;;
19907;SDS011;10116;53.112;7.356;2023-10-19T07:45:36;0.90;;;0.90;;
19907;SDS011;10116;53.112;7.356;2023-10-19T07:48:03;0.80;;;0.80;;
19907;SDS011;10116;53.112;7.356;2023-10-19T07:50:36;0.90;;;0.70;;
19907;SDS011;10116;53.112;7.356;2023-10-19T07:53:02;2.97;;;0.90;;
19907;SDS011;10116;53.112;7.356;2023-10-19T07:55:28;1.20;;;1.10;;
19907;SDS011;10116;53.112;7.356;2023-10-19T07:57:57;1.70;;;1.23;;
19907;SDS011;10116;53.112;7.356;2023-10-19T08:00:25;0.70;;;0.70;;
19907;SDS011;10116;53.112;7.356;2023-10-19T08:02:54;1.00;;;1.00;;
19907;SDS011;10116;53.112;7.356;2023-10-19T08:05:20;1.37;;;0.70;;
19907;SDS011;10116;53.112;7.356;2023-10-19T08:07:46;1.33;;;0.83;;
19907;SDS011;10116;53.112;7.356;2023-10-19T08:10:15;0.63;;;0.63;;
19907;SDS011;10116;53.112;7.356;2023-10-19T08:12:42;0.80;;;0.70;;
19907;SDS011;10116;53.112;7.356;2023-10-19T08:15:11;0.60;;;0.60;;
19907;SDS011;10116;53.112;7.356;2023-10-19T08:17:39;1.00;;;0.90;;
19907;SDS011;10116;53.112;7.356;2023-10-19T08:20:06;1.43;;;1.00;;
19907;SDS011;10116;53.112;7.356;2023-10-19T08:22:44;1.07;;;0.73;;
19907;SDS011;10116;53.112;7.356;2023-10-19T08:25:12;0.90;;;0.90;;
19907;SDS011;10116;53.112;7.356;2023-10-19T08:27:43;1.00;;;0.80;;
19907;SDS011;10116;53.112;7.356;2023-10-19T08:30:13;1.00;;;1.00;;
19907;SDS011;10116;53.112;7.356;2023-10-19T08:32:40;1.23;;;1.23;;
19907;SDS011;10116;53.112;7.356;2023-10-19T08:35:07;1.47;;;0.70;;
19907;SDS011;10116;53.112;7.356;2023-10-19T08:37:36;1.60;;;1.10;;
19907;SDS011;10116;53.112;7.356;2023-10-19T08:40:04;1.00;;;0.63;;
19907;SDS011;10116;53.112;7.356;2023-10-19T08:42:39;1.53;;;0.90;;
19907;SDS011;10116;53.112;7.356;2023-10-19T08:45:06;1.00;;;0.90;;
19907;SDS011;10116;53.112;7.356;2023-10-19T08:47:34;0.93;;;0.93;;
19907;SDS011;10116;53.112;7.356;2023-10-19T08:50:02;1.57;;;0.80;;
19907;SDS011;10116;53.112;7.356;2023-10-19T08:52:30;1.00;;;0.77;;
19907;SDS011;10116;53.112;7.356;2023-10-19T08:54:57;0.77;;;0.77;;
19907;SDS011;10116;53.112;7.356;2023-10-19T08:57:23;2.10;;;0.60;;
19907;SDS011;10116;53.112;7.356;2023-10-19T08:59:49;1.30;;;0.97;;
19907;SDS011;10116;53.112;7.356;2023-10-19T09:02:14;1.00;;;0.80;;
19907;SDS011;10116;53.112;7.356;2023-10-19T09:04:47;8.80;;;1.03;;
19907;SDS011;10116;53.112;7.356;2023-10-19T09:07:13;0.73;;;0.70;;
19907;SDS011;10116;53.112;7.356;2023-10-19T09:09:41;0.70;;;0.70;;
19907;SDS011;10116;53.112;7.356;2023-10-19T09:12:07;1.23;;;0.60;;
19907;SDS011;10116;53.112;7.356;2023-10-19T09:14:34;0.70;;;0.60;;
19907;SDS011;10116;53.112;7.356;2023-10-19T09:17:08;2.40;;;1.10;;
19907;SDS011;10116;53.112;7.356;2023-10-19T09:22:13;0.77;;;0.53;;
19907;SDS011;10116;53.112;7.356;2023-10-19T09:24:56;1.90;;;0.93;;
19907;SDS011;10116;53.112;7.356;2023-10-19T09:27:23;0.50;;;0.50;;
19907;SDS011;10116;53.112;7.356;2023-10-19T09:29:48;1.37;;;0.87;;
19907;SDS011;10116;53.112;7.356;2023-10-19T09:32:16;0.97;;;0.93;;
19907;SDS011;10116;53.112;7.356;2023-10-19T09:34:42;0.73;;;0.73;;
19907;SDS011;10116;53.112;7.356;2023-10-19T09:37:10;4.60;;;0.97;;
19907;SDS011;10116;53.112;7.356;2023-10-19T09:39:37;0.90;;;0.90;;
19907;SDS011;10116;53.112;7.356;2023-10-19T09:42:05;1.90;;;1.13;;
19907;SDS011;10116;53.112;7.356;2023-10-19T09:44:42;3.63;;;1.00;;
19907;SDS011;10116;53.112;7.356;2023-10-19T09:47:26;1.00;;;1.00;;
19907;SDS011;10116;53.112;7.356;2023-10-19T09:49:56;5.40;;;0.80;;
19907;SDS011;10116;53.112;7.356;2023-10-19T09:52:22;1.13;;;0.70;;
19907;SDS011;10116;53.112;7.356;2023-10-19T09:57:31;22.60;;;4.13;;
19907;SDS011;10116;53.112;7.356;2023-10-19T10:00:03;78.10;;;14.23;;
19907;SDS011;10116;53.112;7.356;2023-10-19T10:02:44;22.93;;;5.47;;
19907;SDS011;10116;53.112;7.356;2023-10-19T10:10:46;9.53;;;3.37;;
19907;SDS011;10116;53.112;7.356;2023-10-19T10:16:11;4.97;;;2.33;;
19907;SDS011;10116;53.112;7.356;2023-10-19T10:18:39;11.00;;;2.80;;
19907;SDS011;10116;53.112;7.356;2023-10-19T10:21:13;8.40;;;2.27;;
19907;SDS011;10116;53.112;7.356;2023-10-19T10:26:15;3.30;;;1.60;;
19907;SDS011;10116;53.112;7.356;2023-10-19T10:28:45;2.50;;;1.30;;
19907;SDS011;10116;53.112;7.356;2023-10-19T10:33:48;3.33;;;1.57;;
19907;SDS011;10116;53.112;7.356;2023-10-19T10:36:22;3.47;;;1.30;;
19907;SDS011;10116;53.112;7.356;2023-10-19T10:38:48;2.73;;;1.33;;
19907;SDS011;10116;53.112;7.356;2023-10-19T10:43:48;11.10;;;4.10;;
19907;SDS011;10116;53.112;7.356;2023-10-19T10:46:21;12.53;;;4.90;;
19907;SDS011;10116;53.112;7.356;2023-10-19T10:48:47;8.03;;;3.87;;
19907;SDS011;10116;53.112;7.356;2023-10-19T10:51:26;7.53;;;4.57;;
19907;SDS011;10116;53.112;7.356;2023-10-19T10:53:56;9.90;;;4.93;;
19907;SDS011;10116;53.112;7.356;2023-10-19T10:56:23;12.70;;;4.67;;
19907;SDS011;10116;53.112;7.356;2023-10-19T10:58:49;10.73;;;4.70;;
19907;SDS011;10116;53.112;7.356;2023-10-19T11:01:15;7.40;;;4.60;;
19907;SDS011;10116;53.112;7.356;2023-10-19T11:04:05;7.80;;;4.47;;
19907;SDS011;10116;53.112;7.356;2023-10-19T11:06:32;6.03;;;3.33;;
19907;SDS011;10116;53.112;7.356;2023-10-19T11:08:57;3.50;;;3.20;;
19907;SDS011;10116;53.112;7.356;2023-10-19T11:11:37;3.33;;;2.83;;
19907;SDS011;10116;53.112;7.356;2023-10-19T11:14:09;2.70;;;2.50;;
19907;SDS011;10116;53.112;7.356;2023-10-19T11:16:38;3.27;;;2.97;;
19907;SDS011;10116;53.112;7.356;2023-10-19T11:19:05;8.00;;;3.80;;
19907;SDS011;10116;53.112;7.356;2023-10-19T11:21:30;5.40;;;3.57;;
19907;SDS011;10116;53.112;7.356;2023-10-19T11:23:56;5.37;;;4.40;;
19907;SDS011;10116;53.112;7.356;2023-10-19T11:26:22;5.67;;;3.50;;
19907;SDS011;10116;53.112;7.356;2023-10-19T11:28:59;4.33;;;3.93;;
19907;SDS011;10116;53.112;7.356;2023-10-19T11:31:26;4.60;;;3.73;;
19907;SDS011;10116;53.112;7.356;2023-10-19T11:33:53;8.73;;;3.30;;
19907;SDS011;10116;53.112;7.356;2023-10-19T11:36:23;4.57;;;3.37;;
19907;SDS011;10116;53.112;7.356;2023-10-19T11:38:51;4.33;;;3.13;;
19907;SDS011;10116;53.112;7.356;2023-10-19T11:41:18;3.70;;;2.80;;
19907;SDS011;10116;53.112;7.356;2023-10-19T11:43:45;3.70;;;3.00;;
19907;SDS011;10116;53.112;7.356;2023-10-19T11:46:11;2.70;;;2.30;;
19907;SDS011;10116;53.112;7.356;2023-10-19T11:48:37;2.87;;;2.57;;
19907;SDS011;10116;53.112;7.356;2023-10-19T11:51:05;2.57;;;2.47;;
19907;SDS011;10116;53.112;7.356;2023-10-19T11:53:31;3.70;;;2.10;;
19907;SDS011;10116;53.112;7.356;2023-10-19T11:56:04;2.53;;;2.33;;
19907;SDS011;10116;53.112;7.356;2023-10-19T11:58:34;2.13;;;2.03;;
19907;SDS011;10116;53.112;7.356;2023-10-19T12:01:04;2.63;;;2.40;;
19907;SDS011;10116;53.112;7.356;2023-10-19T12:03:36;2.00;;;1.90;;
19907;SDS011;10116;53.112;7.356;2023-10-19T12:06:04;2.00;;;1.90;;
19907;SDS011;10116;53.112;7.356;2023-10-19T12:08:32;2.03;;;1.93;;
19907;SDS011;10116;53.112;7.356;2023-10-19T12:10:59;2.13;;;2.03;;
19907;SDS011;10116;53.112;7.356;2023-10-19T12:13:27;1.80;;;1.70;;
19907;SDS011;10116;53.112;7.356;2023-10-19T12:15:53;2.10;;;2.00;;
19907;SDS011;10116;53.112;7.356;2023-10-19T12:18:20;2.03;;;1.93;;
19907;SDS011;10116;53.112;7.356;2023-10-19T12:20:46;2.13;;;1.80;;
19907;SDS011;10116;53.112;7.356;2023-10-19T12:23:13;1.63;;;1.60;;
19907;SDS011;10116;53.112;7.356;2023-10-19T12:25:39;1.70;;;1.70;;
19907;SDS011;10116;53.112;7.356;2023-10-19T12:28:07;1.70;;;1.60;;
19907;SDS011;10116;53.112;7.356;2023-10-19T12:30:33;1.73;;;1.63;;
19907;SDS011;10116;53.112;7.356;2023-10-19T12:33:08;1.70;;;1.60;;
19907;SDS011;10116;53.112;7.356;2023-10-19T12:35:37;1.83;;;1.47;;
19907;SDS011;10116;53.112;7.356;2023-10-19T12:38:13;1.40;;;1.40;;
19907;SDS011;10116;53.112;7.356;2023-10-19T12:40:45;3.20;;;1.50;;
19907;SDS011;10116;53.112;7.356;2023-10-19T12:43:12;2.40;;;1.53;;
19907;SDS011;10116;53.112;7.356;2023-10-19T12:45:39;2.90;;;1.40;;
19907;SDS011;10116;53.112;7.356;2023-10-19T12:48:06;1.23;;;1.20;;
19907;SDS011;10116;53.112;7.356;2023-10-19T12:50:35;1.30;;;1.20;;
19907;SDS011;10116;53.112;7.356;2023-10-19T12:53:01;1.00;;;1.00;;
19907;SDS011;10116;53.112;7.356;2023-10-19T12:55:27;1.17;;;1.17;;
19907;SDS011;10116;53.112;7.356;2023-10-19T12:57:53;1.10;;;1.10;;
19907;SDS011;10116;53.112;7.356;2023-10-19T13:00:22;1.10;;;1.10;;
19907;SDS011;10116;53.112;7.356;2023-10-19T13:03:04;2.63;;;1.40;;
19907;SDS011;10116;53.112;7.356;2023-10-19T13:05:34;1.47;;;1.40;;
19907;SDS011;10116;53.112;7.356;2023-10-19T13:08:01;1.40;;;1.30;;
19907;SDS011;10116;53.112;7.356;2023-10-19T13:10:31;1.13;;;1.13;;
19907;SDS011;10116;53.112;7.356;2023-10-19T13:13:01;2.00;;;1.53;;
19907;SDS011;10116;53.112;7.356;2023-10-19T13:15:31;1.40;;;1.30;;
19907;SDS011;10116;53.112;7.356;2023-10-19T13:18:01;6.70;;;1.77;;
19907;SDS011;10116;53.112;7.356;2023-10-19T13:20:27;1.60;;;1.50;;
19907;SDS011;10116;53.112;7.356;2023-10-19T13:22:59;1.90;;;1.57;;
19907;SDS011;10116;53.112;7.356;2023-10-19T13:25:26;1.30;;;1.30;;
19907;SDS011;10116;53.112;7.356;2023-10-19T13:28:10;1.13;;;1.13;;
19907;SDS011;10116;53.112;7.356;2023-10-19T13:30:40;1.53;;;1.43;;
19907;SDS011;10116;53.112;7.356;2023-10-19T13:33:08;1.60;;;1.50;;
19907;SDS011;10116;53.112;7.356;2023-10-19T13:35:35;1.97;;;1.30;;
19907;SDS011;10116;53.112;7.356;2023-10-19T13:38:02;1.30;;;1.20;;
19907;SDS011;10116;53.112;7.356;2023-10-19T13:40:29;1.23;;;1.23;;
19907;SDS011;10116;53.112;7.356;2023-10-19T13:42:55;1.30;;;1.30;;
19907;SDS011;10116;53.112;7.356;2023-10-19T13:45:22;1.27;;;1.17;;
19907;SDS011;10116;53.112;7.356;2023-10-19T13:47:48;1.93;;;1.83;;
19907;SDS011;10116;53.112;7.356;2023-10-19T13:50:14;2.00;;;1.50;;
19907;SDS011;10116;53.112;7.356;2023-10-19T13:52:40;1.20;;;1.20;;
19907;SDS011;10116;53.112;7.356;2023-10-19T13:55:06;1.90;;;1.70;;
19907;SDS011;10116;53.112;7.356;2023-10-19T13:57:33;1.37;;;1.27;;
19907;SDS011;10116;53.112;7.356;2023-10-19T13:59:59;1.50;;;1.40;;
19907;SDS011;10116;53.112;7.356;2023-10-19T14:02:26;1.53;;;1.43;;
19907;SDS011;10116;53.112;7.356;2023-10-19T14:04:51;1.50;;;1.40;;
19907;SDS011;10116;53.112;7.356;2023-10-19T14:07:18;1.40;;;1.30;;
19907;SDS011;10116;53.112;7.356;2023-10-19T14:09:44;1.67;;;1.57;;
19907;SDS011;10116;53.112;7.356;2023-10-19T14:12:10;1.67;;;1.50;;
19907;SDS011;10116;53.112;7.356;2023-10-19T14:14:35;1.60;;;1.50;;
19907;SDS011;10116;53.112;7.356;2023-10-19T14:17:01;1.77;;;1.63;;
19907;SDS011;10116;53.112;7.356;2023-10-19T14:19:27;1.60;;;1.50;;
19907;SDS011;10116;53.112;7.356;2023-10-19T14:21:53;1.70;;;1.60;;
19907;SDS011;10116;53.112;7.356;2023-10-19T14:24:19;2.10;;;2.00;;
19907;SDS011;10116;53.112;7.356;2023-10-19T14:26:46;2.83;;;1.53;;
19907;SDS011;10116;53.112;7.356;2023-10-19T14:29:12;3.87;;;2.60;;
19907;SDS011;10116;53.112;7.356;2023-10-19T14:31:38;2.70;;;2.50;;
19907;SDS011;10116;53.112;7.356;2023-10-19T14:34:05;2.73;;;2.30;;
19907;SDS011;10116;53.112;7.356;2023-10-19T14:36:33;2.67;;;2.47;;
19907;SDS011;10116;53.112;7.356;2023-10-19T14:38:58;4.40;;;2.30;;
19907;SDS011;10116;53.112;7.356;2023-10-19T14:41:24;2.70;;;2.50;;
19907;SDS011;10116;53.112;7.356;2023-10-19T14:43:50;2.90;;;2.70;;
19907;SDS011;10116;53.112;7.356;2023-10-19T14:46:15;3.37;;;3.07;;
19907;SDS011;10116;53.112;7.356;2023-10-19T14:48:41;4.00;;;2.57;;
19907;SDS011;10116;53.112;7.356;2023-10-19T14:51:07;3.70;;;3.10;;
19907;SDS011;10116;53.112;7.356;2023-10-19T14:53:32;3.07;;;2.87;;
19907;SDS011;10116;53.112;7.356;2023-10-19T14:55:58;3.00;;;2.80;;
19907;SDS011;10116;53.112;7.356;2023-10-19T14:58:24;6.00;;;2.90;;
19907;SDS011;10116;53.112;7.356;2023-10-19T15:00:51;2.90;;;2.70;;
19907;SDS011;10116;53.112;7.356;2023-10-19T15:03:22;3.03;;;2.83;;
19907;SDS011;10116;53.112;7.356;2023-10-19T15:05:53;3.20;;;2.60;;
19907;SDS011;10116;53.112;7.356;2023-10-19T15:08:20;2.67;;;2.47;;
19907;SDS011;10116;53.112;7.356;2023-10-19T15:10:47;2.63;;;2.40;;
19907;SDS011;10116;53.112;7.356;2023-10-19T15:13:13;2.60;;;2.50;;
19907;SDS011;10116;53.112;7.356;2023-10-19T15:15:40;2.30;;;2.20;;
19907;SDS011;10116;53.112;7.356;2023-10-19T15:18:06;2.77;;;2.10;;
19907;SDS011;10116;53.112;7.356;2023-10-19T15:20:32;3.17;;;2.40;;
19907;SDS011;10116;53.112;7.356;2023-10-19T15:23:00;2.23;;;2.13;;
19907;SDS011;10116;53.112;7.356;2023-10-19T15:25:25;2.50;;;2.10;;